Time;durP1;ratioP1;P1;durP2;ratioP2;P2;SDS_P1;SDS_P2;PMS_P1;PMS_P2;Temp;Humidity;BMP_temperature;BMP_pressure;BME280_temperature;BME280_humidity;BME280_pressure;Samples;Min_cycle;Max_cycle;Signal;HPM_P1;HPM_P2
2023/09/21 00:00:20;;;;;;;2.25;1.38;;;20.50;99.90;;;;;;5011836;28;20026;-81
2023/09/21 00:02:50;;;;;;;0.35;0.13;;;20.40;99.90;;;;;;5010912;28;20112;-81
2023/09/21 00:05:21;;;;;;;0.10;0.10;;;20.50;99.90;;;;;;4998044;28;20697;-82
2023/09/21 00:07:47;;;;;;;0.00;0.00;;;20.50;99.90;;;;;;5020431;28;20112;-81
2023/09/21 00:10:13;;;;;;;0.55;0.40;;;20.50;99.90;;;;;;5012301;28;20040;-81
2023/09/21 00:12:40;;;;;;;0.15;0.10;;;20.40;99.90;;;;;;5011781;28;20042;-82
2023/09/21 00:15:07;;;;;;;0.10;0.10;;;20.50;99.90;;;;;;5011282;28;20022;-77
2023/09/21 00:17:37;;;;;;;3.17;0.85;;;20.50;99.90;;;;;;5009219;28;20038;-81
2023/09/21 00:20:12;;;;;;;0.17;0.13;;;20.50;99.90;;;;;;5011451;28;20062;-82
2023/09/21 00:22:38;;;;;;;0.00;0.00;;;20.50;99.90;;;;;;5011282;28;20018;-81
2023/09/21 00:25:14;;;;;;;0.65;0.20;;;20.60;99.90;;;;;;5011394;28;20488;-82
2023/09/21 00:27:40;;;;;;;0.10;0.10;;;20.60;99.90;;;;;;5011488;28;20054;-81
2023/09/21 00:30:06;;;;;;;0.05;0.05;;;20.50;99.90;;;;;;5011343;28;20489;-82
2023/09/21 00:32:37;;;;;;;0.00;0.00;;;20.60;99.90;;;;;;5010159;28;20501;-81
2023/09/21 00:35:06;;;;;;;0.28;0.28;;;20.60;99.90;;;;;;5011281;28;20022;-81
2023/09/21 00:37:36;;;;;;;0.30;0.25;;;20.60;99.90;;;;;;5009514;28;20046;-82
2023/09/21 00:40:16;;;;;;;0.45;0.45;;;20.60;99.90;;;;;;5009864;28;20041;-80
2023/09/21 00:42:43;;;;;;;0.85;0.47;;;20.70;99.90;;;;;;4993296;28;20552;-82
2023/09/21 00:45:09;;;;;;;3.40;0.98;;;20.80;99.90;;;;;;5002646;28;20037;-80
2023/09/21 00:47:42;;;;;;;0.10;0.10;;;20.70;99.90;;;;;;5011073;28;20022;-82
2023/09/21 00:50:12;;;;;;;0.25;0.25;;;20.70;99.90;;;;;;5011359;28;20026;-82
2023/09/21 00:52:40;;;;;;;0.52;0.38;;;20.60;99.90;;;;;;5009082;28;20033;-81
2023/09/21 00:55:13;;;;;;;0.25;0.10;;;20.60;99.90;;;;;;5011146;28;20040;-82
2023/09/21 00:57:40;;;;;;;0.73;0.40;;;20.70;99.90;;;;;;5009838;28;20477;-83
2023/09/21 01:00:13;;;;;;;0.82;0.40;;;20.70;99.90;;;;;;5026300;28;20018;-82
2023/09/21 01:02:42;;;;;;;1.05;1.05;;;20.80;99.90;;;;;;5010194;28;20494;-82
2023/09/21 01:05:09;;;;;;;0.00;0.00;;;20.60;99.90;;;;;;5009433;28;20437;-82
2023/09/21 01:07:38;;;;;;;0.20;0.10;;;20.60;99.90;;;;;;5010583;28;20150;-82
2023/09/21 01:10:07;;;;;;;0.10;0.10;;;20.60;99.90;;;;;;5010812;28;20059;-81
2023/09/21 01:12:35;;;;;;;0.52;0.40;;;20.70;99.90;;;;;;4993164;28;20046;-80
2023/09/21 01:15:10;;;;;;;0.30;0.30;;;20.70;99.90;;;;;;5009512;28;20022;-78
2023/09/21 01:17:45;;;;;;;1.42;0.77;;;20.70;99.90;;;;;;5010820;28;20034;-78
2023/09/21 01:20:18;;;;;;;0.22;0.22;;;20.60;99.90;;;;;;5025519;28;20026;-77
2023/09/21 01:22:48;;;;;;;0.13;0.13;;;20.60;99.90;;;;;;5025794;28;20547;-74
2023/09/21 01:25:15;;;;;;;0.10;0.10;;;20.60;99.90;;;;;;5009059;28;20115;-79
2023/09/21 01:27:42;;;;;;;0.00;0.00;;;20.70;99.90;;;;;;5009930;28;20038;-81
2023/09/21 01:30:11;;;;;;;0.00;0.00;;;20.70;99.90;;;;;;5009116;28;20105;-77
2023/09/21 01:32:39;;;;;;;1.75;1.10;;;20.60;99.90;;;;;;5010621;28;20406;-76
2023/09/21 01:35:07;;;;;;;0.43;0.43;;;20.50;99.90;;;;;;5008902;28;20026;-79
2023/09/21 01:37:32;;;;;;;0.17;0.17;;;20.60;99.90;;;;;;5025469;28;20087;-77
2023/09/21 01:40:00;;;;;;;2.55;0.70;;;20.70;99.90;;;;;;5025203;28;20026;-75
2023/09/21 01:42:26;;;;;;;1.10;1.05;;;20.70;99.90;;;;;;4989390;28;20513;-78
2023/09/21 01:44:55;;;;;;;1.75;0.43;;;20.60;99.90;;;;;;4992634;28;20025;-77
2023/09/21 01:47:21;;;;;;;0.00;0.00;;;20.50;99.90;;;;;;5010141;28;20053;-76
2023/09/21 01:49:47;;;;;;;2.42;0.50;;;20.50;99.90;;;;;;5009252;28;20061;-80
2023/09/21 01:52:13;;;;;;;0.00;0.00;;;20.70;99.90;;;;;;5009940;28;20034;-77
2023/09/21 01:54:39;;;;;;;2.00;1.27;;;20.60;99.90;;;;;;5008722;28;20033;-80
2023/09/21 01:57:08;;;;;;;0.45;0.45;;;20.50;99.90;;;;;;5010132;28;20486;-77
2023/09/21 01:59:35;;;;;;;1.65;0.17;;;20.60;99.90;;;;;;5008971;28;20018;-77
2023/09/21 02:02:01;;;;;;;0.17;0.17;;;20.60;99.90;;;;;;4992447;28;20029;-82
2023/09/21 02:04:27;;;;;;;0.00;0.00;;;20.50;99.90;;;;;;5008487;28;20029;-82
2023/09/21 02:06:56;;;;;;;1.30;0.30;;;20.60;99.90;;;;;;5010199;28;20516;-80
2023/09/21 02:09:22;;;;;;;0.00;0.00;;;20.70;99.90;;;;;;5024998;28;20048;-82
2023/09/21 02:11:49;;;;;;;0.32;0.32;;;20.50;99.90;;;;;;5010330;28;20086;-78
2023/09/21 02:14:17;;;;;;;0.10;0.10;;;20.50;99.90;;;;;;5009752;28;20034;-78
2023/09/21 02:16:43;;;;;;;0.88;0.68;;;20.60;99.90;;;;;;5008862;28;20036;-81
2023/09/21 02:19:10;;;;;;;0.00;0.00;;;20.60;99.90;;;;;;5009665;28;20024;-79
2023/09/21 02:21:36;;;;;;;0.30;0.30;;;20.50;99.90;;;;;;5010076;28;20052;-81
2023/09/21 02:24:04;;;;;;;5.47;0.40;;;20.50;99.90;;;;;;4989279;28;20026;-81
2023/09/21 02:26:30;;;;;;;0.00;0.00;;;20.60;99.90;;;;;;5008883;28;20030;-81
2023/09/21 02:28:56;;;;;;;0.00;0.00;;;20.50;99.90;;;;;;5025114;28;20022;-78
2023/09/21 02:31:22;;;;;;;0.03;0.03;;;20.50;99.90;;;;;;5009677;28;20058;-82
2023/09/21 02:33:48;;;;;;;1.45;0.20;;;20.40;99.90;;;;;;5008203;28;20037;-82
2023/09/21 02:36:19;;;;;;;1.45;1.17;;;20.40;99.90;;;;;;5009711;28;20025;-82
2023/09/21 02:38:45;;;;;;;0.00;0.00;;;20.40;99.90;;;;;;5009252;28;20385;-82
2023/09/21 02:41:11;;;;;;;0.10;0.10;;;20.50;99.90;;;;;;5011732;28;20025;-82
2023/09/21 02:43:40;;;;;;;0.00;0.00;;;20.40;99.90;;;;;;5012983;28;20029;-82
2023/09/21 02:46:06;;;;;;;0.00;0.00;;;20.50;99.90;;;;;;5013021;28;20159;-82
2023/09/21 02:48:33;;;;;;;0.17;0.10;;;20.50;99.90;;;;;;5012516;28;20030;-82
2023/09/21 02:51:03;;;;;;;0.08;0.08;;;20.50;99.90;;;;;;4992028;28;20490;-82
2023/09/21 02:53:29;;;;;;;0.10;0.10;;;20.50;99.90;;;;;;5021565;28;20034;-82
2023/09/21 02:55:55;;;;;;;0.00;0.00;;;20.30;99.90;;;;;;5028077;28;20500;-82
2023/09/21 02:58:23;;;;;;;0.47;0.43;;;20.40;99.90;;;;;;5027912;28;20022;-81
2023/09/21 03:00:52;;;;;;;0.03;0.03;;;20.20;99.90;;;;;;5010926;28;20122;-82
2023/09/21 03:03:20;;;;;;;0.00;0.00;;;20.20;99.90;;;;;;5027995;28;20026;-81
2023/09/21 03:05:49;;;;;;;0.10;0.10;;;20.30;99.90;;;;;;5011302;28;20510;-82
2023/09/21 03:08:17;;;;;;;0.93;0.65;;;20.30;99.90;;;;;;5011379;28;20478;-80
2023/09/21 03:10:47;;;;;;;0.63;0.22;;;20.40;99.90;;;;;;5027311;28;20024;-82
2023/09/21 03:13:17;;;;;;;0.45;0.32;;;20.20;99.90;;;;;;5011417;28;20434;-81
2023/09/21 03:15:45;;;;;;;2.17;0.57;;;20.20;99.90;;;;;;5010772;28;20113;-82
2023/09/21 03:18:11;;;;;;;0.10;0.10;;;20.10;99.90;;;;;;5011202;28;20153;-77
2023/09/21 03:20:37;;;;;;;0.45;0.32;;;20.10;99.90;;;;;;5011182;28;20026;-78
2023/09/21 03:23:09;;;;;;;0.38;0.38;;;20.10;99.90;;;;;;5012416;28;20018;-75
2023/09/21 03:25:47;;;;;;;3.70;1.20;;;20.00;99.90;;;;;;5012301;28;20453;-81
2023/09/21 03:28:14;;;;;;;0.63;0.40;;;20.00;99.90;;;;;;5012029;28;20532;-73
2023/09/21 03:30:48;;;;;;;4.40;1.00;;;19.80;99.90;;;;;;5011870;28;20018;-82
2023/09/21 03:33:16;;;;;;;0.77;0.50;;;19.60;99.90;;;;;;5010851;28;20069;-79
2023/09/21 03:35:42;;;;;;;0.28;0.28;;;19.20;99.90;;;;;;5027290;28;20036;-81
2023/09/21 03:38:12;;;;;;;0.98;0.90;;;18.90;99.90;;;;;;5010702;28;20044;-76
2023/09/21 03:40:42;;;;;;;3.53;0.55;;;18.40;99.90;;;;;;5011732;28;20018;-80
2023/09/21 03:43:12;;;;;;;1.33;1.23;;;18.10;99.90;;;;;;5010563;28;20104;-80
2023/09/21 03:45:39;;;;;;;0.10;0.10;;;17.90;99.90;;;;;;5010243;28;20026;-79
2023/09/21 03:48:08;;;;;;;0.77;0.65;;;18.00;99.90;;;;;;5012122;28;20082;-80
2023/09/21 03:50:36;;;;;;;5.55;1.20;;;17.90;99.90;;;;;;4993905;28;20029;-80
2023/09/21 03:53:04;;;;;;;0.75;0.70;;;17.80;99.90;;;;;;5012178;28;20053;-74
2023/09/21 03:55:30;;;;;;;0.63;0.38;;;17.90;99.90;;;;;;5010429;28;20051;-79
2023/09/21 03:57:56;;;;;;;0.80;0.20;;;17.90;99.90;;;;;;5011725;28;20026;-79
2023/09/21 04:02:53;;;;;;;0.00;0.00;;;17.90;99.90;;;;;;5010357;28;20010;-79
2023/09/21 04:05:23;;;;;;;3.45;1.02;;;18.10;99.90;;;;;;5010455;28;20049;-81
2023/09/21 04:07:49;;;;;;;4.18;1.80;;;18.10;99.90;;;;;;5010193;28;20363;-78
2023/09/21 04:10:15;;;;;;;0.00;0.00;;;18.20;99.90;;;;;;5011359;28;20427;-78
2023/09/21 04:12:45;;;;;;;1.00;0.52;;;18.10;99.90;;;;;;5010135;28;20042;-79
2023/09/21 04:15:11;;;;;;;0.32;0.32;;;18.10;99.90;;;;;;5011354;28;20075;-77
2023/09/21 04:17:40;;;;;;;0.15;0.15;;;18.00;99.90;;;;;;5011459;28;20390;-79
2023/09/21 04:20:11;;;;;;;1.33;1.00;;;18.00;99.90;;;;;;5010204;28;20542;-79
2023/09/21 04:22:39;;;;;;;1.02;0.50;;;17.90;99.90;;;;;;5010082;28;20486;-76
2023/09/21 04:25:09;;;;;;;0.47;0.25;;;17.90;99.90;;;;;;5010265;28;20033;-74
2023/09/21 04:27:40;;;;;;;1.50;0.97;;;18.00;99.90;;;;;;5026412;28;20030;-79
2023/09/21 04:30:25;;;;;;;1.97;1.83;;;18.00;99.90;;;;;;5009569;28;20038;-80
2023/09/21 04:32:53;;;;;;;1.70;1.23;;;18.00;99.90;;;;;;5026298;28;20091;-77
2023/09/21 04:35:21;;;;;;;2.70;0.75;;;18.00;99.90;;;;;;5026378;28;20026;-78
2023/09/21 04:37:50;;;;;;;2.47;0.73;;;18.10;99.90;;;;;;5026624;28;20071;-75
2023/09/21 04:40:17;;;;;;;0.15;0.15;;;18.00;99.90;;;;;;5025846;28;20075;-79
2023/09/21 04:42:48;;;;;;;1.65;0.80;;;18.10;99.90;;;;;;5009467;28;20038;-77
2023/09/21 04:45:19;;;;;;;0.15;0.15;;;18.10;99.90;;;;;;5026351;28;20036;-77
2023/09/21 04:47:49;;;;;;;0.90;0.75;;;18.00;99.90;;;;;;5010023;28;20026;-80
2023/09/21 04:50:17;;;;;;;1.00;0.32;;;18.10;99.90;;;;;;5009785;28;20049;-79
2023/09/21 04:52:45;;;;;;;0.30;0.30;;;18.20;99.90;;;;;;5011093;28;20494;-78
2023/09/21 04:55:16;;;;;;;2.30;0.90;;;18.20;99.90;;;;;;5010194;28;20438;-80
2023/09/21 04:57:44;;;;;;;0.10;0.10;;;18.10;99.90;;;;;;5009540;28;20458;-79
2023/09/21 05:00:13;;;;;;;2.20;0.65;;;18.10;99.90;;;;;;5026027;28;20083;-80
2023/09/21 05:02:39;;;;;;;0.00;0.00;;;18.00;99.90;;;;;;5002656;28;20083;-78
2023/09/21 05:05:07;;;;;;;0.28;0.25;;;18.10;99.90;;;;;;5000352;28;20146;-79
2023/09/21 05:07:35;;;;;;;0.10;0.10;;;18.10;99.90;;;;;;5001485;28;20053;-77
2023/09/21 05:10:03;;;;;;;0.55;0.45;;;18.10;99.90;;;;;;4993112;28;20020;-79
2023/09/21 05:12:29;;;;;;;3.20;0.57;;;18.10;99.90;;;;;;5001480;28;20050;-77
2023/09/21 05:14:57;;;;;;;0.13;0.13;;;18.20;99.90;;;;;;5010700;28;20470;-79
2023/09/21 05:17:23;;;;;;;0.22;0.22;;;18.20;99.90;;;;;;5010710;28;20094;-77
2023/09/21 05:19:51;;;;;;;0.47;0.35;;;18.20;99.90;;;;;;5010452;28;20018;-79
2023/09/21 05:22:17;;;;;;;0.00;0.00;;;18.20;99.90;;;;;;5003217;28;20095;-79
2023/09/21 05:24:43;;;;;;;3.13;0.73;;;18.20;99.90;;;;;;5010433;28;20022;-79
2023/09/21 05:27:11;;;;;;;2.25;1.48;;;18.10;99.90;;;;;;5009098;28;20030;-79
2023/09/21 05:29:39;;;;;;;0.60;0.52;;;18.20;99.90;;;;;;5025934;28;20113;-79
2023/09/21 05:32:06;;;;;;;0.52;0.32;;;18.20;99.90;;;;;;5004662;28;20049;-79
2023/09/21 05:34:32;;;;;;;0.05;0.05;;;18.30;99.90;;;;;;5026476;28;20382;-77
2023/09/21 05:36:58;;;;;;;0.85;0.85;;;18.20;99.90;;;;;;5020221;28;20030;-78
2023/09/21 05:39:24;;;;;;;0.20;0.20;;;17.70;99.90;;;;;;5040431;28;20019;-78
2023/09/21 05:41:52;;;;;;;0.00;0.00;;;17.90;99.90;;;;;;5029792;28;20026;-78
2023/09/21 05:44:24;;;;;;;0.17;0.17;;;17.50;99.90;;;;;;5039270;28;20421;-76
2023/09/21 05:46:51;;;;;;;0.00;0.00;;;17.50;99.90;;;;;;5013069;28;20016;-78
2023/09/21 05:49:23;;;;;;;0.00;0.00;;;17.30;99.90;;;;;;5008891;28;20032;-78
2023/09/21 05:51:53;;;;;;;0.20;0.20;;;17.00;99.90;;;;;;5068950;28;20532;-76
2023/09/21 05:54:23;;;;;;;0.30;0.20;;;17.10;99.90;;;;;;5051522;28;20151;-80
2023/09/21 05:56:53;;;;;;;0.10;0.10;;;17.10;99.90;;;;;;5055629;28;20577;-78
2023/09/21 05:59:21;;;;;;;0.52;0.20;;;17.10;99.90;;;;;;5013243;28;20034;-77
2023/09/21 06:01:48;;;;;;;0.00;0.00;;;16.70;99.90;;;;;;5068094;28;20682;-76
2023/09/21 06:04:16;;;;;;;1.25;0.52;;;16.90;99.90;;;;;;5063929;28;20533;-78
2023/09/21 06:06:46;;;;;;;0.00;0.00;;;16.90;99.90;;;;;;5053829;28;20049;-79
2023/09/21 06:09:18;;;;;;;0.00;0.00;;;16.90;99.90;;;;;;5022747;28;20030;-77
2023/09/21 06:11:48;;;;;;;0.10;0.10;;;17.00;99.90;;;;;;5009343;28;20080;-77
2023/09/21 06:14:17;;;;;;;1.27;0.90;;;17.10;99.90;;;;;;5072612;28;20038;-78
2023/09/21 06:16:43;;;;;;;0.00;0.00;;;17.00;99.90;;;;;;5073237;28;20060;-78
2023/09/21 06:19:13;;;;;;;0.00;0.00;;;17.20;99.90;;;;;;5022672;28;20030;-76
2023/09/21 06:21:42;;;;;;;0.10;0.10;;;17.40;99.90;;;;;;5027880;28;20087;-74
2023/09/21 06:24:09;;;;;;;0.00;0.00;;;17.80;99.90;;;;;;5014396;28;20032;-78
2023/09/21 06:26:36;;;;;;;0.00;0.00;;;17.70;99.90;;;;;;5029195;28;20030;-79
2023/09/21 06:29:03;;;;;;;0.00;0.00;;;17.80;99.90;;;;;;5056731;28;20016;-79
2023/09/21 06:31:29;;;;;;;0.00;0.00;;;17.70;99.90;;;;;;5086773;28;20034;-78
2023/09/21 06:33:58;;;;;;;0.00;0.00;;;17.30;99.90;;;;;;5044141;28;20022;-78
2023/09/21 06:36:27;;;;;;;0.00;0.00;;;16.90;99.90;;;;;;5031860;28;20045;-78
2023/09/21 06:38:53;;;;;;;0.00;0.00;;;17.10;99.90;;;;;;5032455;28;20088;-78
2023/09/21 06:41:20;;;;;;;0.00;0.00;;;17.60;99.90;;;;;;5028983;28;20030;-76
2023/09/21 06:43:46;;;;;;;0.00;0.00;;;17.90;99.90;;;;;;5014378;28;20049;-78
2023/09/21 06:46:13;;;;;;;0.00;0.00;;;18.00;99.90;;;;;;5017049;28;20120;-76
2023/09/21 06:48:42;;;;;;;0.00;0.00;;;18.00;99.90;;;;;;5029012;28;20378;-78
2023/09/21 06:51:08;;;;;;;0.00;0.00;;;17.90;99.90;;;;;;5043245;28;20046;-77
2023/09/21 06:53:35;;;;;;;0.00;0.00;;;17.60;99.90;;;;;;5055076;28;20022;-76
2023/09/21 06:56:01;;;;;;;0.00;0.00;;;17.70;99.90;;;;;;5030178;28;20047;-77
2023/09/21 06:58:30;;;;;;;0.00;0.00;;;17.70;99.90;;;;;;5018732;28;20034;-78
2023/09/21 07:01:00;;;;;;;0.00;0.00;;;17.80;99.90;;;;;;5040544;28;20031;-77
2023/09/21 07:03:26;;;;;;;0.00;0.00;;;17.70;99.90;;;;;;5078993;28;20024;-78
2023/09/21 07:05:52;;;;;;;0.25;0.25;;;17.50;99.90;;;;;;5038953;28;20066;-77
2023/09/21 07:08:19;;;;;;;0.00;0.00;;;17.30;99.90;;;;;;5026093;28;20444;-77
2023/09/21 07:10:45;;;;;;;0.00;0.00;;;17.30;99.90;;;;;;5019298;28;20424;-78
2023/09/21 07:13:13;;;;;;;0.00;0.00;;;17.50;99.90;;;;;;5044967;28;20092;-78
2023/09/21 07:15:39;;;;;;;0.00;0.00;;;17.40;99.90;;;;;;5023954;28;20466;-77
2023/09/21 07:18:06;;;;;;;0.00;0.00;;;17.60;99.90;;;;;;5001825;28;20026;-81
2023/09/21 07:20:33;;;;;;;0.00;0.00;;;17.60;99.90;;;;;;5012111;28;20030;-81
2023/09/21 07:22:59;;;;;;;0.00;0.00;;;17.50;99.90;;;;;;5007506;28;20402;-80
2023/09/21 07:25:27;;;;;;;0.00;0.00;;;17.50;99.90;;;;;;5011368;28;20022;-81
2023/09/21 07:27:54;;;;;;;0.00;0.00;;;17.60;99.90;;;;;;5012233;28;20030;-81
2023/09/21 07:30:26;;;;;;;0.00;0.00;;;17.40;99.90;;;;;;5012007;28;20022;-81
2023/09/21 07:32:55;;;;;;;0.10;0.10;;;17.40;99.90;;;;;;5012111;28;20037;-80
2023/09/21 07:35:23;;;;;;;0.00;0.00;;;17.40;99.90;;;;;;5012033;28;20044;-81
2023/09/21 07:37:50;;;;;;;0.00;0.00;;;17.30;99.90;;;;;;5011947;28;20026;-80
2023/09/21 07:40:18;;;;;;;0.00;0.00;;;17.30;99.90;;;;;;5011939;28;20030;-79
2023/09/21 07:42:45;;;;;;;0.50;0.50;;;17.20;99.90;;;;;;5011007;28;20382;-78
2023/09/21 07:45:11;;;;;;;0.00;0.00;;;16.90;99.90;;;;;;5011944;28;20110;-80
2023/09/21 07:47:38;;;;;;;0.45;0.10;;;17.00;99.90;;;;;;5012186;28;20118;-80
2023/09/21 07:50:05;;;;;;;0.00;0.00;;;17.00;99.90;;;;;;5020650;28;20022;-81
2023/09/21 07:52:33;;;;;;;0.00;0.00;;;17.00;99.90;;;;;;5012122;28;20033;-81
2023/09/21 07:55:02;;;;;;;0.00;0.00;;;17.20;99.90;;;;;;5010895;28;20037;-81
2023/09/21 07:57:37;;;;;;;0.00;0.00;;;17.40;99.90;;;;;;5011906;28;20026;-80
2023/09/21 08:00:05;;;;;;;0.00;0.00;;;17.50;99.90;;;;;;5011902;28;20041;-80
2023/09/21 08:02:31;;;;;;;0.00;0.00;;;17.60;99.90;;;;;;5011570;28;20034;-80
2023/09/21 08:04:57;;;;;;;0.00;0.00;;;17.50;99.90;;;;;;5010703;28;20497;-80
2023/09/21 08:07:25;;;;;;;0.00;0.00;;;17.50;99.90;;;;;;5011108;28;20029;-76
2023/09/21 08:09:54;;;;;;;0.00;0.00;;;17.30;99.90;;;;;;5012068;28;20034;-80
2023/09/21 08:12:21;;;;;;;0.00;0.00;;;17.20;99.90;;;;;;5012096;28;20048;-79
2023/09/21 08:14:48;;;;;;;0.00;0.00;;;17.20;99.90;;;;;;5011620;28;20018;-79
2023/09/21 08:17:14;;;;;;;0.00;0.00;;;17.20;99.90;;;;;;5011591;28;20022;-79
2023/09/21 08:19:40;;;;;;;0.00;0.00;;;17.10;99.90;;;;;;5011632;28;20522;-80
2023/09/21 08:22:07;;;;;;;0.00;0.00;;;17.20;99.90;;;;;;5011268;28;20078;-81
2023/09/21 08:24:36;;;;;;;0.00;0.00;;;17.10;99.90;;;;;;5011563;28;20022;-80
2023/09/21 08:27:03;;;;;;;0.00;0.00;;;17.20;99.90;;;;;;5011185;28;20058;-80
2023/09/21 08:29:30;;;;;;;0.00;0.00;;;17.30;99.90;;;;;;5011692;28;20086;-80
2023/09/21 08:31:57;;;;;;;1.35;0.80;;;17.30;99.90;;;;;;5010930;28;20018;-77
2023/09/21 08:34:24;;;;;;;0.00;0.00;;;17.40;99.90;;;;;;5010902;28;20036;-80
2023/09/21 08:36:50;;;;;;;0.00;0.00;;;17.50;99.90;;;;;;5011185;28;20075;-80
2023/09/21 08:39:16;;;;;;;6.32;3.75;;;17.60;99.90;;;;;;5011166;28;20158;-77
2023/09/21 08:41:51;;;;;;;0.40;0.30;;;17.30;99.90;;;;;;5009775;28;20472;-80
2023/09/21 08:44:20;;;;;;;0.00;0.00;;;17.10;99.90;;;;;;5011232;28;20036;-77
2023/09/21 08:46:50;;;;;;;0.00;0.00;;;17.10;99.90;;;;;;5011204;28;20374;-80
2023/09/21 08:49:16;;;;;;;0.00;0.00;;;16.90;99.90;;;;;;5009398;28;20030;-79
2023/09/21 08:51:44;;;;;;;0.45;0.45;;;17.10;99.90;;;;;;5011118;28;20410;-80
2023/09/21 08:54:16;;;;;;;0.60;0.30;;;17.00;99.90;;;;;;5009727;28;20074;-80
2023/09/21 08:56:46;;;;;;;0.00;0.00;;;17.00;99.90;;;;;;5010965;28;20080;-78
2023/09/21 08:59:15;;;;;;;0.10;0.10;;;17.10;99.90;;;;;;5009619;28;20042;-77
2023/09/21 09:01:42;;;;;;;0.38;0.35;;;17.00;99.90;;;;;;5010650;28;20101;-78
2023/09/21 09:04:09;;;;;;;0.75;0.75;;;17.00;99.90;;;;;;5010262;28;20022;-79
2023/09/21 09:06:34;;;;;;;0.00;0.00;;;17.30;99.90;;;;;;5010754;28;20022;-78
2023/09/21 09:09:00;;;;;;;0.00;0.00;;;17.60;99.90;;;;;;5009560;28;20025;-78
2023/09/21 09:11:40;;;;;;;0.00;0.00;;;17.50;99.90;;;;;;5009154;28;20078;-79
2023/09/21 09:14:14;;;;;;;0.00;0.00;;;17.50;99.90;;;;;;5009997;28;20038;-79
2023/09/21 09:16:41;;;;;;;0.05;0.05;;;17.50;99.90;;;;;;5010743;28;20539;-80
2023/09/21 09:19:08;;;;;;;0.00;0.00;;;17.30;99.90;;;;;;5008908;28;20055;-79
2023/09/21 09:21:34;;;;;;;0.13;0.13;;;17.20;99.90;;;;;;5010702;28;20068;-79
2023/09/21 09:24:00;;;;;;;0.00;0.00;;;17.40;99.90;;;;;;5010413;28;20026;-79
2023/09/21 09:26:26;;;;;;;0.00;0.00;;;17.70;99.90;;;;;;5010519;28;20101;-79
2023/09/21 09:29:09;;;;;;;0.28;0.28;;;17.70;99.90;;;;;;5010416;28;20177;-78
2023/09/21 09:31:41;;;;;;;0.00;0.00;;;17.20;99.90;;;;;;5010322;28;20042;-79
2023/09/21 09:34:09;;;;;;;0.00;0.00;;;17.40;99.90;;;;;;5009859;28;20029;-79
2023/09/21 09:36:36;;;;;;;0.00;0.00;;;17.30;99.90;;;;;;5010425;28;20351;-79
2023/09/21 09:39:08;;;;;;;0.00;0.00;;;17.50;99.90;;;;;;5010166;28;20029;-79
2023/09/21 09:41:34;;;;;;;0.88;0.63;;;17.60;99.90;;;;;;5010280;28;20030;-78
2023/09/21 09:44:05;;;;;;;0.00;0.00;;;17.50;99.90;;;;;;5010132;28;20485;-78
2023/09/21 09:46:35;;;;;;;1.50;0.53;;;17.40;99.90;;;;;;5010548;28;20030;-79
2023/09/21 09:49:02;;;;;;;0.20;0.20;;;17.40;99.90;;;;;;5009295;28;20364;-78
2023/09/21 09:51:48;;;;;;;0.10;0.10;;;16.90;99.90;;;;;;5010206;28;20022;-76
2023/09/21 09:54:16;;;;;;;0.32;0.32;;;16.10;99.90;;;;;;5009886;28;20485;-79
2023/09/21 09:56:42;;;;;;;0.22;0.22;;;15.90;99.90;;;;;;5010008;28;20022;-77
2023/09/21 09:59:12;;;;;;;0.00;0.00;;;15.80;99.90;;;;;;5009843;28;20046;-79
2023/09/21 10:01:39;;;;;;;0.00;0.00;;;15.70;99.90;;;;;;5007661;28;20034;-79
2023/09/21 10:04:08;;;;;;;0.00;0.00;;;15.70;99.90;;;;;;5007194;28;20048;-79
2023/09/21 10:06:38;;;;;;;0.00;0.00;;;15.80;99.90;;;;;;5018521;28;20033;-79
2023/09/21 10:09:13;;;;;;;0.20;0.20;;;16.20;99.90;;;;;;5013556;28;20026;-79
2023/09/21 10:11:48;;;;;;;0.10;0.10;;;16.00;99.90;;;;;;5009978;28;20538;-79
2023/09/21 10:14:17;;;;;;;0.00;0.00;;;16.60;99.90;;;;;;5009858;28;20045;-78
2023/09/21 10:16:53;;;;;;;0.00;0.00;;;16.50;99.90;;;;;;5009957;28;20026;-79
2023/09/21 10:19:26;;;;;;;0.00;0.00;;;16.50;99.90;;;;;;5009381;28;20492;-77
2023/09/21 10:21:59;;;;;;;0.20;0.20;;;16.70;99.90;;;;;;5008393;28;20035;-77
2023/09/21 10:24:29;;;;;;;0.10;0.10;;;16.60;99.90;;;;;;5009400;28;20048;-78
2023/09/21 10:26:58;;;;;;;0.00;0.00;;;16.20;99.90;;;;;;5009879;28;20018;-79
2023/09/21 10:29:36;;;;;;;0.00;0.00;;;16.20;99.90;;;;;;5009555;28;20030;-80
2023/09/21 10:32:09;;;;;;;0.47;0.47;;;16.30;99.90;;;;;;5009110;28;20083;-78
2023/09/21 10:34:45;;;;;;;0.00;0.00;;;16.30;99.90;;;;;;5025004;28;20026;-79
2023/09/21 10:37:15;;;;;;;0.00;0.00;;;16.40;99.90;;;;;;5009714;28;20034;-79
2023/09/21 10:39:41;;;;;;;0.00;0.00;;;16.60;99.90;;;;;;5009372;28;20066;-79
2023/09/21 10:42:06;;;;;;;0.00;0.00;;;16.80;99.90;;;;;;5009345;28;20057;-78
2023/09/21 10:45:04;;;;;;;0.00;0.00;;;16.90;99.90;;;;;;5009612;28;20062;-79
2023/09/21 10:47:36;;;;;;;0.00;0.00;;;17.30;99.90;;;;;;4996291;28;20026;-78
2023/09/21 10:50:12;;;;;;;;;;;17.30;99.90;;;;;;5009725;28;20038;-78
2023/09/21 10:52:43;;;;;;;0.00;0.00;;;17.80;99.90;;;;;;5008286;28;19918;-80
2023/09/21 10:55:14;;;;;;;0.00;0.00;;;18.00;99.90;;;;;;5009402;28;20094;-79
2023/09/21 10:57:42;;;;;;;0.00;0.00;;;17.60;99.90;;;;;;5009540;28;20029;-79
2023/09/21 11:00:21;;;;;;;0.00;0.00;;;17.80;99.90;;;;;;5010555;28;20109;-79
2023/09/21 11:02:49;;;;;;;0.20;0.20;;;18.10;99.90;;;;;;5011337;28;20030;-79
2023/09/21 11:05:16;;;;;;;0.08;0.08;;;18.40;99.90;;;;;;5012781;28;20128;-79
2023/09/21 11:07:44;;;;;;;0.10;0.10;;;18.00;99.90;;;;;;5012882;28;20537;-78
2023/09/21 11:10:11;;;;;;;0.00;0.00;;;17.80;99.90;;;;;;5012459;28;20109;-79
2023/09/21 11:12:40;;;;;;;0.00;0.00;;;17.90;99.90;;;;;;5011034;28;20050;-80
2023/09/21 11:15:16;;;;;;;0.00;0.00;;;18.00;99.90;;;;;;5011054;28;20463;-79
2023/09/21 11:17:43;;;;;;;0.00;0.00;;;17.90;99.90;;;;;;5012782;28;20034;-80
2023/09/21 11:20:12;;;;;;;0.00;0.00;;;17.70;99.90;;;;;;5012580;28;20097;-79
2023/09/21 11:22:46;;;;;;;0.00;0.00;;;17.80;99.90;;;;;;5012456;28;20026;-79
2023/09/21 11:25:14;;;;;;;0.35;0.35;;;17.80;99.90;;;;;;5011129;28;20551;-80
2023/09/21 11:27:43;;;;;;;0.00;0.00;;;18.00;99.90;;;;;;5012400;28;20026;-80
2023/09/21 11:30:13;;;;;;;0.00;0.00;;;18.10;99.90;;;;;;5011921;28;20033;-79
2023/09/21 11:32:57;;;;;;;0.55;0.32;;;17.90;99.90;;;;;;5012358;28;20049;-79
2023/09/21 11:35:25;;;;;;;0.00;0.00;;;17.80;99.90;;;;;;5012063;28;20041;-80
2023/09/21 11:37:51;;;;;;;0.00;0.00;;;17.90;99.90;;;;;;5012346;28;20218;-80
2023/09/21 11:40:21;;;;;;;0.25;0.25;;;17.90;99.90;;;;;;5011582;28;20068;-80
2023/09/21 11:42:48;;;;;;;0.00;0.00;;;18.00;99.90;;;;;;5012201;28;20042;-80
2023/09/21 11:45:19;;;;;;;0.10;0.10;;;18.30;99.90;;;;;;5011956;28;20030;-80
2023/09/21 11:47:56;;;;;;;0.13;0.10;;;18.10;99.90;;;;;;5011908;28;20033;-77
2023/09/21 11:50:27;;;;;;;1.40;0.40;;;18.30;99.90;;;;;;5011779;28;20049;-76
2023/09/21 11:52:54;;;;;;;0.10;0.10;;;18.30;99.90;;;;;;5010784;28;20053;-77
2023/09/21 11:55:28;;;;;;;0.00;0.00;;;18.40;99.90;;;;;;5011668;28;20497;-79
2023/09/21 11:58:08;;;;;;;0.05;0.05;;;18.70;99.90;;;;;;5011947;28;20034;-80
2023/09/21 12:01:24;;;;;;;0.05;0.05;;;18.80;99.90;;;;;;5010312;28;20034;-79
2023/09/21 12:03:24;;;;;;;0.00;0.00;;;18.80;99.90;;;;;;5007685;28;20046;-79
2023/09/21 12:05:51;;;;;;;0.00;0.00;;;18.80;99.90;;;;;;5011654;28;20018;-78
2023/09/21 12:08:19;;;;;;;0.22;0.22;;;19.00;99.90;;;;;;5011772;28;20377;-79
2023/09/21 12:10:46;;;;;;;0.00;0.00;;;18.70;99.90;;;;;;5011063;28;20054;-77
2023/09/21 12:13:16;;;;;;;0.00;0.00;;;18.50;99.90;;;;;;5009543;28;20042;-78
2023/09/21 12:15:42;;;;;;;0.93;0.85;;;18.20;99.90;;;;;;5011301;28;20025;-77
2023/09/21 12:18:12;;;;;;;0.52;0.10;;;18.10;99.90;;;;;;5011333;28;20018;-76
2023/09/21 12:20:49;;;;;;;0.00;0.00;;;17.90;99.90;;;;;;5011419;28;20049;-78
2023/09/21 12:23:18;;;;;;;0.20;0.20;;;17.70;99.90;;;;;;5002111;28;20134;-77
2023/09/21 12:25:45;;;;;;;0.10;0.10;;;17.60;99.90;;;;;;5011132;28;20058;-78
2023/09/21 12:28:11;;;;;;;0.30;0.20;;;17.60;99.90;;;;;;5010967;28;20497;-78
2023/09/21 12:30:41;;;;;;;0.25;0.25;;;17.70;99.90;;;;;;5011644;28;20109;-78
2023/09/21 12:33:08;;;;;;;0.00;0.00;;;17.70;99.90;;;;;;5011239;28;20045;-76
2023/09/21 12:35:35;;;;;;;0.15;0.15;;;17.90;99.90;;;;;;5011310;28;20018;-77
2023/09/21 12:38:02;;;;;;;0.00;0.00;;;17.90;99.90;;;;;;5011123;28;20038;-80
2023/09/21 12:40:28;;;;;;;0.00;0.00;;;18.10;99.90;;;;;;5010894;28;20026;-80
2023/09/21 12:42:54;;;;;;;0.00;0.00;;;18.40;99.90;;;;;;5009675;28;20960;-79
2023/09/21 12:45:21;;;;;;;0.38;0.20;;;18.50;99.90;;;;;;5027177;28;20030;-78
2023/09/21 12:47:47;;;;;;;0.40;0.10;;;18.10;99.90;;;;;;5030341;28;20418;-78
2023/09/21 12:50:14;;;;;;;0.00;0.00;;;18.00;99.90;;;;;;5022342;28;20026;-78
2023/09/21 12:52:42;;;;;;;0.03;0.03;;;17.90;99.90;;;;;;5033035;28;20092;-78
2023/09/21 12:55:09;;;;;;;0.00;0.00;;;18.10;99.90;;;;;;5077298;28;20313;-78
2023/09/21 12:57:40;;;;;;;0.10;0.10;;;18.20;99.90;;;;;;5037829;28;20113;-73